createdAt,value
2018-02-19T00:00:12.563Z,50.25
2018-02-19T00:00:44.172Z,48.83
2018-02-19T00:01:15.798Z,49.03
2018-02-19T00:01:47.440Z,49.42
2018-02-19T00:02:19.097Z,46.10
2018-02-19T00:02:50.749Z,45.20
2018-02-19T00:03:22.389Z,49.33
2018-02-19T00:03:54.010Z,45.20
2018-02-19T00:04:25.644Z,52.22
2018-02-19T00:04:57.247Z,51.05
2018-02-19T00:05:28.863Z,50.55
2018-02-19T00:06:00.482Z,49.80
2018-02-19T00:06:32.104Z,48.78
2018-02-19T00:07:04.028Z,54.67
2018-02-19T00:07:35.721Z,52.67
2018-02-19T00:08:07.702Z,47.25
2018-02-19T00:08:39.349Z,54.35
2018-02-19T00:09:10.975Z,55.22
2018-02-19T00:09:42.729Z,50.83
2018-02-19T00:10:14.361Z,48.35
2018-02-19T00:10:45.991Z,56.70
2018-02-19T00:11:17.684Z,55.60
2018-02-19T00:11:49.325Z,48.48
2018-02-19T00:12:21.198Z,48.13
2018-02-19T00:12:52.836Z,47.67
2018-02-19T00:13:24.470Z,50.10
2018-02-19T00:13:56.118Z,49.38
2018-02-19T00:14:27.753Z,51.40
2018-02-19T00:14:59.359Z,47.38
2018-02-19T00:15:30.983Z,48.33
2018-02-19T00:16:02.601Z,49.95
2018-02-19T00:16:34.235Z,47.75
2018-02-19T00:17:05.919Z,46.70
2018-02-19T00:17:37.543Z,48.20
2018-02-19T00:18:09.161Z,46.92
2018-02-19T00:18:40.795Z,48.30
2018-02-19T00:19:12.421Z,52.45
2018-02-19T00:19:44.045Z,57.08
2018-02-19T00:20:15.674Z,53.85
2018-02-19T00:20:47.301Z,50.90
2018-02-19T00:21:18.926Z,52.60
2018-02-19T00:21:50.561Z,48.67
2018-02-19T00:22:22.193Z,48.60
2018-02-19T00:22:53.839Z,48.35
2018-02-19T00:23:25.498Z,48.33
2018-02-19T00:23:57.177Z,50.22
2018-02-19T00:24:28.813Z,48.60
2018-02-19T00:25:00.450Z,44.78
2018-02-19T00:25:32.075Z,53.53
2018-02-19T00:26:03.709Z,58.40
2018-02-19T00:26:35.399Z,52.47
2018-02-19T00:27:07.023Z,51.45
2018-02-19T00:27:38.677Z,49.25
2018-02-19T00:28:10.298Z,44.30
2018-02-19T00:28:41.921Z,48.58
2018-02-19T00:29:13.566Z,51.42
2018-02-19T00:29:45.189Z,50.12
2018-02-19T00:30:16.818Z,50.45
2018-02-19T00:30:48.464Z,51.50
2018-02-19T00:31:20.085Z,47.53
2018-02-19T00:31:51.723Z,50.28
2018-02-19T00:32:23.355Z,52.03
2018-02-19T00:32:55.000Z,46.65
2018-02-19T00:33:26.643Z,53.30
2018-02-19T00:33:58.276Z,54.85
2018-02-19T00:34:29.889Z,52.60
2018-02-19T00:35:01.528Z,46.33
2018-02-19T00:35:33.164Z,50.78
2018-02-19T00:36:04.811Z,49.35
2018-02-19T00:36:36.413Z,45.92
2018-02-19T00:37:08.045Z,49.90
2018-02-19T00:37:39.672Z,52.67
2018-02-19T00:38:11.295Z,51.83
2018-02-19T00:38:42.920Z,45.33
2018-02-19T00:39:14.555Z,51.28
2018-02-19T00:39:46.171Z,51.97
2018-02-19T00:40:17.817Z,50.20
2018-02-19T00:40:49.441Z,43.75
2018-02-19T00:41:21.071Z,49.83
2018-02-19T00:41:52.715Z,55.72
2018-02-19T00:42:24.333Z,49.10
2018-02-19T00:42:55.979Z,46.70
2018-02-19T00:43:27.637Z,50.50
2018-02-19T00:43:59.273Z,54.38
2018-02-19T00:44:30.885Z,50.28
2018-02-19T00:45:02.525Z,52.08
2018-02-19T00:45:34.168Z,51.88
2018-02-19T00:46:05.796Z,54.90
2018-02-19T00:46:37.454Z,53.00
2018-02-19T00:47:09.074Z,53.95
2018-02-19T00:47:40.711Z,53.92
2018-02-19T00:48:12.327Z,47.15
2018-02-19T00:48:43.965Z,56.30
2018-02-19T00:49:15.577Z,55.00
2018-02-19T00:49:47.215Z,55.33
2018-02-19T00:50:18.862Z,50.92
2018-02-19T00:50:50.527Z,49.40
2018-02-19T00:51:22.216Z,59.40
2018-02-19T00:51:53.849Z,52.08
2018-02-19T00:52:25.461Z,52.38
2018-02-19T00:52:57.085Z,54.80
2018-02-19T00:53:28.709Z,53.65
2018-02-19T00:54:00.315Z,59.35
2018-02-19T00:54:31.921Z,55.90
2018-02-19T00:55:03.597Z,55.00
2018-02-19T00:55:35.223Z,55.85
2018-02-19T00:56:06.855Z,54.22
2018-02-19T00:56:38.467Z,58.55
2018-02-19T00:57:10.083Z,56.45
2018-02-19T00:57:41.720Z,57.80
2018-02-19T00:58:13.364Z,54.10
2018-02-19T00:58:44.984Z,57.92
2018-02-19T00:59:16.651Z,60.65
2018-02-19T00:59:48.263Z,57.72
2018-02-19T01:00:19.963Z,58.20
2018-02-19T01:00:51.617Z,59.78
2018-02-19T01:01:23.236Z,60.45
2018-02-19T01:01:54.885Z,56.92
2018-02-19T01:02:26.513Z,54.67
2018-02-19T01:02:58.151Z,54.97
2018-02-19T01:03:29.777Z,57.28
2018-02-19T01:04:01.452Z,58.28
2018-02-19T01:04:33.094Z,60.20
2018-02-19T01:05:04.719Z,55.20
2018-02-19T01:05:36.339Z,57.25
2018-02-19T01:06:07.971Z,55.00
2018-02-19T01:06:39.601Z,54.42
2018-02-19T01:07:11.241Z,51.85
2018-02-19T01:07:42.909Z,55.75
2018-02-19T01:08:14.576Z,55.15
2018-02-19T01:08:46.214Z,58.85
2018-02-19T01:09:17.817Z,60.38
2018-02-19T01:09:49.457Z,55.33
2018-02-19T01:10:21.092Z,53.03
2018-02-19T01:10:52.698Z,52.75
2018-02-19T01:11:24.350Z,48.45
2018-02-19T01:11:56.009Z,54.65
2018-02-19T01:12:27.649Z,55.33
2018-02-19T01:12:59.268Z,54.67
2018-02-19T01:13:30.908Z,57.75
2018-02-19T01:14:02.553Z,53.70
2018-02-19T01:14:34.178Z,53.90
2018-02-19T01:15:05.807Z,57.83
2018-02-19T01:15:37.425Z,56.37
2018-02-19T01:16:09.049Z,55.97
2018-02-19T01:16:40.698Z,53.50
2018-02-19T01:17:12.338Z,51.33
2018-02-19T01:17:43.977Z,52.08
2018-02-19T01:18:15.607Z,59.92
2018-02-19T01:18:47.227Z,55.30
2018-02-19T01:19:18.863Z,52.47
2018-02-19T01:19:50.480Z,64.53
2018-02-19T01:20:22.125Z,56.37
2018-02-19T01:20:53.756Z,61.20
2018-02-19T01:21:25.377Z,63.33
2018-02-19T01:21:57.011Z,59.58
2018-02-19T01:22:28.665Z,59.60
2018-02-19T01:23:00.309Z,60.50
2018-02-19T01:23:31.945Z,59.50
2018-02-19T01:24:03.571Z,55.63
2018-02-19T01:24:35.205Z,53.40
2018-02-19T01:25:06.851Z,54.80
2018-02-19T01:25:38.483Z,52.92
2018-02-19T01:26:10.093Z,57.15
2018-02-19T01:26:41.699Z,60.28
2018-02-19T01:27:13.317Z,56.97
2018-02-19T01:27:44.961Z,55.00
2018-02-19T01:28:16.607Z,56.42
2018-02-19T01:28:48.224Z,53.45
2018-02-19T01:29:19.857Z,52.05
2018-02-19T01:29:51.483Z,57.30
2018-02-19T01:30:23.109Z,50.33
2018-02-19T01:30:54.744Z,50.83
2018-02-19T01:31:26.349Z,54.20
2018-02-19T01:31:58.005Z,52.67
2018-02-19T01:32:29.637Z,55.75
2018-02-19T01:33:01.289Z,54.80
2018-02-19T01:33:32.914Z,62.25
2018-02-19T01:34:04.533Z,62.10
2018-02-19T01:34:36.155Z,63.00
2018-02-19T01:35:07.805Z,53.03
2018-02-19T01:35:39.435Z,51.33
2018-02-19T01:36:11.081Z,56.50
2018-02-19T01:36:43.045Z,50.20
2018-02-19T01:37:14.667Z,53.45
2018-02-19T01:37:46.293Z,53.83
2018-02-19T01:38:17.957Z,51.55
2018-02-19T01:38:49.592Z,56.53
2018-02-19T01:39:21.221Z,53.55
2018-02-19T01:39:52.868Z,55.58
2018-02-19T01:40:24.502Z,50.42
2018-02-19T01:40:56.127Z,55.47
2018-02-19T01:41:27.754Z,58.25
2018-02-19T01:41:59.387Z,57.60
2018-02-19T01:42:31.003Z,60.63
2018-02-19T01:43:02.613Z,55.03
2018-02-19T01:43:34.255Z,59.00
2018-02-19T01:44:05.876Z,56.45
2018-02-19T01:44:37.521Z,58.83
2018-02-19T01:45:09.172Z,58.80
2018-02-19T01:45:40.800Z,59.85
2018-02-19T01:46:12.431Z,57.62
2018-02-19T01:46:44.102Z,59.13
2018-02-19T01:47:15.708Z,56.95
2018-02-19T01:47:47.351Z,59.03
2018-02-19T01:48:18.974Z,64.03
2018-02-19T01:48:50.609Z,61.13
2018-02-19T01:49:22.239Z,60.03
2018-02-19T01:50:12.501Z,59.22
2018-02-19T01:50:44.133Z,57.42
2018-02-19T01:51:15.781Z,65.40
2018-02-19T01:51:47.425Z,57.47
2018-02-19T01:52:19.039Z,62.25
2018-02-19T01:52:50.677Z,65.22
2018-02-19T01:53:22.297Z,62.58
2018-02-19T01:53:53.925Z,68.00
2018-02-19T01:54:25.587Z,59.33
2018-02-19T01:54:57.213Z,64.37
2018-02-19T01:55:28.847Z,66.90
2018-02-19T01:56:00.479Z,59.22
2018-02-19T01:56:32.097Z,57.03
2018-02-19T01:57:03.718Z,56.08
2018-02-19T01:57:35.362Z,57.75
2018-02-19T01:58:06.996Z,66.80
2018-02-19T01:58:38.609Z,67.20
2018-02-19T01:59:10.295Z,59.72
2018-02-19T01:59:41.945Z,62.78
2018-02-19T02:00:13.569Z,64.95
2018-02-19T02:00:45.225Z,67.40
2018-02-19T02:01:16.857Z,60.17
2018-02-19T02:01:48.483Z,64.20
2018-02-19T02:02:20.123Z,60.83
2018-02-19T02:02:51.734Z,61.00
2018-02-19T02:03:23.361Z,67.40
2018-02-19T02:03:54.988Z,58.97
2018-02-19T02:04:26.621Z,57.90
2018-02-19T02:04:58.253Z,67.43
2018-02-19T02:05:29.859Z,54.80
2018-02-19T02:06:01.503Z,70.37
2018-02-19T02:06:33.146Z,56.70
2018-02-19T02:07:04.789Z,61.40
2018-02-19T02:07:36.602Z,57.22
2018-02-19T02:08:08.241Z,60.80
2018-02-19T02:08:39.881Z,62.13
2018-02-19T02:09:11.490Z,63.58
2018-02-19T02:09:43.147Z,54.78
2018-02-19T02:10:14.803Z,64.55
2018-02-19T02:10:46.439Z,60.42
2018-02-19T02:11:18.095Z,57.40
2018-02-19T02:11:49.727Z,58.63
2018-02-19T02:12:21.347Z,58.67
2018-02-19T02:12:52.979Z,59.63
2018-02-19T02:13:24.609Z,60.38
2018-02-19T02:13:56.217Z,61.17
2018-02-19T02:14:27.862Z,64.10
2018-02-19T02:14:59.497Z,61.67
2018-02-19T02:15:31.136Z,58.28
2018-02-19T02:16:02.810Z,63.63
2018-02-19T02:16:34.426Z,59.15
2018-02-19T02:17:06.045Z,55.60
2018-02-19T02:17:37.687Z,58.25
2018-02-19T02:18:09.338Z,60.45
2018-02-19T02:18:41.003Z,53.28
2018-02-19T02:19:12.639Z,50.30
2018-02-19T02:19:44.299Z,51.40
2018-02-19T02:20:15.955Z,56.85
2018-02-19T02:20:47.585Z,60.35
2018-02-19T02:21:19.241Z,55.85
2018-02-19T02:21:50.876Z,51.63
2018-02-19T02:22:22.518Z,53.58
2018-02-19T02:22:54.141Z,51.85
2018-02-19T02:23:25.771Z,53.75
2018-02-19T02:23:57.405Z,51.37
2018-02-19T02:24:29.448Z,53.72
2018-02-19T02:25:01.079Z,55.12
2018-02-19T02:25:32.734Z,54.60
2018-02-19T02:26:04.397Z,60.70
2018-02-19T02:26:36.045Z,55.55
2018-02-19T02:27:07.687Z,54.38
2018-02-19T02:27:39.349Z,60.55
2018-02-19T02:28:10.965Z,53.20
2018-02-19T02:28:42.597Z,52.72
2018-02-19T02:29:14.211Z,56.17
2018-02-19T02:29:45.837Z,54.88
2018-02-19T02:30:17.457Z,49.53
2018-02-19T02:30:49.203Z,56.40
2018-02-19T02:31:20.910Z,59.28
2018-02-19T02:31:52.525Z,55.75
2018-02-19T02:32:24.145Z,49.95
2018-02-19T02:32:55.753Z,54.10
2018-02-19T02:33:27.384Z,55.75
2018-02-19T02:33:58.994Z,54.20
2018-02-19T02:34:30.623Z,54.72
2018-02-19T02:35:02.270Z,56.47
2018-02-19T02:35:33.909Z,56.20
2018-02-19T02:36:05.534Z,56.70
2018-02-19T02:36:37.157Z,56.97
2018-02-19T02:37:08.784Z,52.08
2018-02-19T02:37:40.473Z,54.75
2018-02-19T02:38:12.084Z,55.25
2018-02-19T02:38:43.722Z,53.00
2018-02-19T02:39:15.353Z,53.83
2018-02-19T02:39:46.973Z,53.65
2018-02-19T02:40:18.597Z,58.70
2018-02-19T02:40:50.233Z,56.42
2018-02-19T02:41:21.867Z,52.58
2018-02-19T02:41:53.494Z,53.05
2018-02-19T02:42:25.136Z,50.97
2018-02-19T02:42:56.753Z,52.58
2018-02-19T02:43:28.382Z,54.65
2018-02-19T02:44:00.016Z,54.42
2018-02-19T02:44:31.666Z,51.92
2018-02-19T02:45:03.317Z,53.30
2018-02-19T02:45:34.942Z,62.58
2018-02-19T02:46:06.569Z,58.20
2018-02-19T02:46:38.245Z,53.60
2018-02-19T02:47:09.884Z,51.42
2018-02-19T02:47:41.514Z,53.30
2018-02-19T02:48:13.139Z,52.53
2018-02-19T02:48:44.770Z,51.10
2018-02-19T02:49:16.429Z,49.42
2018-02-19T02:49:48.089Z,48.85
2018-02-19T02:50:19.729Z,55.42
2018-02-19T02:50:51.361Z,54.05
2018-02-19T02:51:23.007Z,52.13
2018-02-19T02:51:54.644Z,53.38
2018-02-19T02:52:26.276Z,51.53
2018-02-19T02:52:57.881Z,47.60
2018-02-19T02:53:29.514Z,44.78
2018-02-19T02:54:01.153Z,48.63
2018-02-19T02:54:32.770Z,50.95
2018-02-19T02:55:04.391Z,48.56
2018-02-19T02:55:36.016Z,56.85
2018-02-19T02:56:07.660Z,54.30
2018-02-19T02:56:39.308Z,52.75
2018-02-19T02:57:10.953Z,49.60
2018-02-19T02:57:42.589Z,48.13
2018-02-19T02:58:14.214Z,50.58
2018-02-19T02:58:45.829Z,51.33
2018-02-19T02:59:17.447Z,51.25
2018-02-19T02:59:49.051Z,48.83
2018-02-19T03:00:20.693Z,47.72
2018-02-19T03:00:52.339Z,46.47
2018-02-19T03:01:23.975Z,48.85
2018-02-19T03:01:55.599Z,47.53
2018-02-19T03:02:27.247Z,52.75
2018-02-19T03:02:58.876Z,44.90
2018-02-19T03:03:30.545Z,49.83
2018-02-19T03:04:02.186Z,48.20
2018-02-19T03:04:33.836Z,47.65
2018-02-19T03:05:05.448Z,52.95
2018-02-19T03:05:37.065Z,45.65
2018-02-19T03:06:08.704Z,48.00
2018-02-19T03:06:40.369Z,45.08
2018-02-19T03:07:12.011Z,47.50
2018-02-19T03:07:43.642Z,54.40
2018-02-19T03:08:15.256Z,47.65
2018-02-19T03:08:46.878Z,40.75
2018-02-19T03:09:18.517Z,51.88
2018-02-19T03:09:50.174Z,47.50
2018-02-19T03:10:21.828Z,48.75
2018-02-19T03:10:53.449Z,46.97
2018-02-19T03:11:25.070Z,41.28
2018-02-19T03:11:56.699Z,47.38
2018-02-19T03:12:28.315Z,47.55
2018-02-19T03:12:59.942Z,42.13
2018-02-19T03:13:31.549Z,44.42
2018-02-19T03:14:03.200Z,44.38
2018-02-19T03:14:34.829Z,40.30
2018-02-19T03:15:06.467Z,42.00
2018-02-19T03:15:38.109Z,42.28
2018-02-19T03:16:09.729Z,50.28
2018-02-19T03:16:41.384Z,47.72
2018-02-19T03:17:13.009Z,43.65
2018-02-19T03:17:44.639Z,48.17
2018-02-19T03:18:16.257Z,44.75
2018-02-19T03:18:47.890Z,41.42
2018-02-19T03:19:19.492Z,43.83
2018-02-19T03:19:51.118Z,45.15
2018-02-19T03:20:22.728Z,41.08
2018-02-19T03:20:54.351Z,42.83
2018-02-19T03:21:26.004Z,44.88
2018-02-19T03:21:57.636Z,48.25
2018-02-19T03:22:29.273Z,41.58
2018-02-19T03:23:00.895Z,41.80
2018-02-19T03:23:32.501Z,40.67
2018-02-19T03:24:04.130Z,42.88
2018-02-19T03:24:35.739Z,40.28
2018-02-19T03:25:07.374Z,43.87
2018-02-19T03:25:38.998Z,45.03
2018-02-19T03:26:10.605Z,46.10
2018-02-19T03:26:42.255Z,37.25
2018-02-19T03:27:13.893Z,41.05
2018-02-19T03:27:45.517Z,43.00
2018-02-19T03:28:17.140Z,41.15
2018-02-19T03:28:48.760Z,43.53
2018-02-19T03:29:20.359Z,40.75
2018-02-19T03:29:51.969Z,41.65
2018-02-19T03:30:23.592Z,46.10
2018-02-19T03:30:55.218Z,39.90
2018-02-19T03:31:26.834Z,40.30
2018-02-19T03:31:58.425Z,40.47
2018-02-19T03:32:30.069Z,37.15
2018-02-19T03:33:01.694Z,44.38
2018-02-19T03:33:33.338Z,40.12
2018-02-19T03:34:04.976Z,36.88
2018-02-19T03:34:36.904Z,46.45
2018-02-19T03:35:08.535Z,45.45
2018-02-19T03:35:40.154Z,40.22
2018-02-19T03:36:11.762Z,41.10
2018-02-19T03:36:43.416Z,42.42
2018-02-19T03:37:15.058Z,39.65
2018-02-19T03:37:46.709Z,40.67
2018-02-19T03:38:18.321Z,41.88
2018-02-19T03:38:49.951Z,39.58
2018-02-19T03:39:21.607Z,37.85
2018-02-19T03:39:53.244Z,38.90
2018-02-19T03:40:24.888Z,47.85
2018-02-19T03:40:56.558Z,36.40
2018-02-19T03:41:28.178Z,43.87
2018-02-19T03:41:59.844Z,38.63
2018-02-19T03:42:31.481Z,36.85
2018-02-19T03:43:03.149Z,42.08
2018-02-19T03:43:34.752Z,40.88
2018-02-19T03:44:06.379Z,44.00
2018-02-19T03:44:38.017Z,35.92
2018-02-19T03:45:09.655Z,40.47
2018-02-19T03:45:41.297Z,39.03
2018-02-19T03:46:12.918Z,37.72
2018-02-19T03:46:44.520Z,40.12
2018-02-19T03:47:16.139Z,38.42
2018-02-19T03:47:47.755Z,39.17
2018-02-19T03:48:19.377Z,38.85
2018-02-19T03:48:51.017Z,40.78
2018-02-19T03:49:22.640Z,41.03
2018-02-19T03:49:54.297Z,39.08
2018-02-19T03:50:25.924Z,42.47
2018-02-19T03:50:57.552Z,41.58
2018-02-19T03:51:29.195Z,38.70
2018-02-19T03:52:00.824Z,37.13
2018-02-19T03:52:32.443Z,38.35
2018-02-19T03:53:04.077Z,41.17
2018-02-19T03:53:35.709Z,40.75
2018-02-19T03:54:07.319Z,42.85
2018-02-19T03:54:38.952Z,41.28
2018-02-19T03:55:10.581Z,38.60
2018-02-19T03:55:42.268Z,39.03
2018-02-19T03:56:13.849Z,37.75
2018-02-19T03:56:45.464Z,41.78
2018-02-19T03:57:17.105Z,38.97
2018-02-19T03:57:48.714Z,42.72
2018-02-19T03:58:20.334Z,39.25
2018-02-19T03:58:51.953Z,37.72
2018-02-19T03:59:23.582Z,37.25
2018-02-19T03:59:55.197Z,38.55
2018-02-19T04:00:26.851Z,38.75
2018-02-19T04:00:58.478Z,40.30
2018-02-19T04:01:30.105Z,37.50
2018-02-19T04:02:01.739Z,40.00
2018-02-19T04:02:33.396Z,35.65
2018-02-19T04:03:05.037Z,35.92
2018-02-19T04:03:36.690Z,39.42
2018-02-19T04:04:08.315Z,38.40
2018-02-19T04:04:39.938Z,38.75
2018-02-19T04:05:11.571Z,38.22
2018-02-19T04:05:43.189Z,41.65
2018-02-19T04:06:14.796Z,39.22
2018-02-19T04:06:46.437Z,40.15
2018-02-19T04:07:18.104Z,36.08
2018-02-19T04:07:49.737Z,38.40
2018-02-19T04:08:21.359Z,37.60
2018-02-19T04:08:52.975Z,41.83
2018-02-19T04:09:24.617Z,42.08
2018-02-19T04:09:56.251Z,39.13
2018-02-19T04:10:27.894Z,40.58
2018-02-19T04:10:59.509Z,38.17
2018-02-19T04:11:31.114Z,43.28
2018-02-19T04:12:02.779Z,37.60
2018-02-19T04:12:34.397Z,39.05
2018-02-19T04:13:06.037Z,39.63
2018-02-19T04:13:37.651Z,40.25
2018-02-19T04:14:09.252Z,39.80
2018-02-19T04:14:40.880Z,36.03
2018-02-19T04:15:12.553Z,38.17
2018-02-19T04:15:44.168Z,39.15
2018-02-19T04:16:15.789Z,37.08
2018-02-19T04:16:47.435Z,37.10
2018-02-19T04:17:19.041Z,38.92
2018-02-19T04:17:50.682Z,40.95
2018-02-19T04:18:22.305Z,40.42
2018-02-19T04:18:53.942Z,37.92
2018-02-19T04:19:26.947Z,38.00
2018-02-19T04:19:58.591Z,38.33
2018-02-19T04:20:30.236Z,40.40
2018-02-19T04:21:01.874Z,37.45
2018-02-19T04:21:33.505Z,33.42
2018-02-19T04:22:05.123Z,36.70
2018-02-19T04:22:36.801Z,40.97
2018-02-19T04:23:08.426Z,41.28
2018-02-19T04:23:40.077Z,40.40
2018-02-19T04:24:11.704Z,39.63
2018-02-19T04:24:43.346Z,38.30
2018-02-19T04:25:14.983Z,36.33
2018-02-19T04:25:46.593Z,38.22
2018-02-19T04:26:18.221Z,35.65
2018-02-19T04:26:49.847Z,41.50
2018-02-19T04:27:21.496Z,39.78
2018-02-19T04:27:53.136Z,38.65
2018-02-19T04:28:24.775Z,38.92
2018-02-19T04:28:56.390Z,35.75
2018-02-19T04:29:28.018Z,37.92
2018-02-19T04:29:59.639Z,38.40
2018-02-19T04:30:31.268Z,40.17
2018-02-19T04:31:02.911Z,41.45
2018-02-19T04:31:34.563Z,46.00
2018-02-19T04:32:06.190Z,37.75
2018-02-19T04:32:37.847Z,36.92
2018-02-19T04:33:09.486Z,36.05
2018-02-19T04:33:41.113Z,36.13
2018-02-19T04:34:12.733Z,36.72
2018-02-19T04:34:44.341Z,40.55
2018-02-19T04:35:15.976Z,38.58
2018-02-19T04:35:47.619Z,39.88
2018-02-19T04:36:19.266Z,37.25
2018-02-19T04:36:50.909Z,34.75
2018-02-19T04:37:22.562Z,34.47
2018-02-19T04:37:54.209Z,37.38
2018-02-19T04:38:25.829Z,40.65
2018-02-19T04:38:57.459Z,40.47
2018-02-19T04:39:29.125Z,37.55
2018-02-19T04:40:00.748Z,44.15
2018-02-19T04:40:32.364Z,35.22
2018-02-19T04:41:04.000Z,38.42
2018-02-19T04:41:35.641Z,38.22
2018-02-19T04:42:07.291Z,37.70
2018-02-19T04:42:38.950Z,39.53
2018-02-19T04:43:10.632Z,37.63
2018-02-19T04:43:42.280Z,37.63
2018-02-19T04:44:13.956Z,43.85
2018-02-19T04:44:48.513Z,35.08
2018-02-19T04:46:35.336Z,37.03
2018-02-19T04:47:06.999Z,38.30
2018-02-19T04:47:38.632Z,37.65
2018-02-19T04:48:10.265Z,38.45
2018-02-19T04:48:41.904Z,37.55
2018-02-19T04:49:13.537Z,36.53
2018-02-19T04:49:45.163Z,39.97
2018-02-19T04:50:16.795Z,37.42
2018-02-19T04:50:48.447Z,37.28
2018-02-19T04:51:20.085Z,40.97
2018-02-19T04:51:51.981Z,39.95
2018-02-19T04:52:23.588Z,37.13
2018-02-19T04:52:55.216Z,37.85
2018-02-19T04:53:26.839Z,37.78
2018-02-19T04:53:58.460Z,35.88
2018-02-19T04:54:30.125Z,35.90
2018-02-19T04:55:01.759Z,37.45
2018-02-19T04:55:33.376Z,37.70
2018-02-19T04:56:04.997Z,37.10
2018-02-19T04:56:36.629Z,41.58
2018-02-19T04:57:08.250Z,41.22
2018-02-19T04:57:39.862Z,41.85
2018-02-19T04:58:11.501Z,41.28
2018-02-19T04:58:43.123Z,40.15
2018-02-19T04:59:14.769Z,39.97
2018-02-19T04:59:46.397Z,39.05
2018-02-19T05:00:18.299Z,39.42
2018-02-19T05:00:49.942Z,36.25
2018-02-19T05:01:21.572Z,40.42
2018-02-19T05:01:53.233Z,40.36
2018-02-19T05:02:24.881Z,37.10
2018-02-19T05:02:56.501Z,42.22
2018-02-19T05:03:28.136Z,40.12
2018-02-19T05:03:59.763Z,38.65
2018-02-19T05:04:31.385Z,38.55
2018-02-19T05:05:03.026Z,39.70
2018-02-19T05:05:34.652Z,39.95
2018-02-19T05:06:06.279Z,43.33
2018-02-19T05:06:37.913Z,38.63
2018-02-19T05:07:09.526Z,38.85
2018-02-19T05:07:41.141Z,40.95
2018-02-19T05:08:12.757Z,42.80
2018-02-19T05:08:44.413Z,42.47
2018-02-19T05:09:16.017Z,35.80
2018-02-19T05:09:47.664Z,40.72
2018-02-19T05:10:19.281Z,41.65
2018-02-19T05:10:50.923Z,38.83
2018-02-19T05:11:22.551Z,41.28
2018-02-19T05:11:54.157Z,41.05
2018-02-19T05:12:25.781Z,39.78
2018-02-19T05:12:57.430Z,41.22
2018-02-19T05:13:29.063Z,33.35
2018-02-19T05:14:00.743Z,41.47
2018-02-19T05:14:32.341Z,43.90
2018-02-19T05:15:03.962Z,42.80
2018-02-19T05:15:35.633Z,45.38
2018-02-19T05:16:07.265Z,40.83
2018-02-19T05:16:38.887Z,42.62
2018-02-19T05:17:10.509Z,39.47
2018-02-19T05:17:42.165Z,35.53
2018-02-19T05:18:13.789Z,38.08
2018-02-19T05:18:45.426Z,39.17
2018-02-19T05:19:17.061Z,35.03
2018-02-19T05:19:48.685Z,34.10
2018-02-19T05:20:20.322Z,38.38
2018-02-19T05:20:51.976Z,38.55
2018-02-19T05:21:23.604Z,42.55
2018-02-19T05:21:55.233Z,41.78
2018-02-19T05:22:26.850Z,39.65
2018-02-19T05:22:58.541Z,41.72
2018-02-19T05:23:30.171Z,40.33
2018-02-19T05:24:01.806Z,41.33
2018-02-19T05:24:33.460Z,38.67
2018-02-19T05:25:05.087Z,43.67
2018-02-19T05:25:36.723Z,41.92
2018-02-19T05:26:08.338Z,40.53
2018-02-19T05:26:39.985Z,38.40
2018-02-19T05:27:11.607Z,36.55
2018-02-19T05:27:43.217Z,37.17
2018-02-19T05:28:14.842Z,43.28
2018-02-19T05:28:46.487Z,37.63
2018-02-19T05:29:18.121Z,39.83
2018-02-19T05:29:49.750Z,37.67
2018-02-19T05:30:21.376Z,39.65
2018-02-19T05:30:53.015Z,38.25
2018-02-19T05:31:24.632Z,38.50
2018-02-19T05:31:56.277Z,36.15
2018-02-19T05:32:28.232Z,38.35
2018-02-19T05:32:59.852Z,39.67
2018-02-19T05:33:31.481Z,40.70
2018-02-19T05:34:03.141Z,39.20
2018-02-19T05:34:34.771Z,38.95
2018-02-19T05:35:06.412Z,35.83
2018-02-19T05:35:38.049Z,37.38
2018-02-19T05:36:09.674Z,38.10
2018-02-19T05:36:41.273Z,35.92
2018-02-19T05:37:12.905Z,40.38
2018-02-19T05:37:44.556Z,41.47
2018-02-19T05:38:16.214Z,36.47
2018-02-19T05:38:47.849Z,34.78
2018-02-19T05:39:19.467Z,44.72
2018-02-19T05:39:51.089Z,38.13
2018-02-19T05:40:22.734Z,35.50
2018-02-19T05:40:54.369Z,39.70
2018-02-19T05:41:26.011Z,37.80
2018-02-19T05:41:57.653Z,41.10
2018-02-19T05:42:29.296Z,37.85
2018-02-19T05:43:00.910Z,35.88
2018-02-19T05:43:32.541Z,37.83
2018-02-19T05:44:04.152Z,41.03
2018-02-19T05:44:35.787Z,37.85
2018-02-19T05:45:07.414Z,39.25
2018-02-19T05:45:39.048Z,36.88
2018-02-19T05:46:10.653Z,40.12
2018-02-19T05:46:42.317Z,40.75
2018-02-19T05:47:13.937Z,38.65
2018-02-19T05:47:45.574Z,39.85
2018-02-19T05:48:17.224Z,42.28
2018-02-19T05:48:48.846Z,42.78
2018-02-19T05:49:20.459Z,36.97
2018-02-19T05:49:52.105Z,38.63
2018-02-19T05:50:23.729Z,38.42
2018-02-19T05:50:55.373Z,34.40
2018-02-19T05:51:27.016Z,38.58
2018-02-19T05:51:58.646Z,38.63
2018-02-19T05:52:30.289Z,36.20
2018-02-19T05:53:01.911Z,38.45
2018-02-19T05:53:33.539Z,40.30
2018-02-19T05:54:05.166Z,40.05
2018-02-19T05:54:36.806Z,37.85
2018-02-19T05:55:08.423Z,38.78
2018-02-19T05:55:40.032Z,36.90
2018-02-19T05:56:11.663Z,38.63
2018-02-19T05:56:43.310Z,41.78
2018-02-19T05:57:14.949Z,42.78
2018-02-19T05:57:46.558Z,40.25
2018-02-19T05:58:18.227Z,40.00
2018-02-19T05:58:49.886Z,34.82
2018-02-19T05:59:21.523Z,37.80
2018-02-19T05:59:53.193Z,41.90
2018-02-19T06:00:25.686Z,34.97
2018-02-19T06:00:57.851Z,39.28
2018-02-19T06:01:29.681Z,41.13
2018-02-19T06:02:01.303Z,40.58
2018-02-19T06:02:32.922Z,36.28
2018-02-19T06:03:04.543Z,37.78
2018-02-19T06:03:36.185Z,38.75
2018-02-19T06:04:07.855Z,36.10
2018-02-19T06:04:39.476Z,38.20
2018-02-19T06:05:11.089Z,40.90
2018-02-19T06:05:42.716Z,35.88
2018-02-19T06:06:14.678Z,40.95
2018-02-19T06:06:46.400Z,41.67
2018-02-19T06:07:18.010Z,40.45
2018-02-19T06:07:49.638Z,37.70
2018-02-19T06:08:21.280Z,34.90
2018-02-19T06:08:52.897Z,41.28
2018-02-19T06:09:24.500Z,38.63
2018-02-19T06:09:56.132Z,36.17
2018-02-19T06:10:27.752Z,38.50
2018-02-19T06:10:59.406Z,37.75
2018-02-19T06:11:31.047Z,40.17
2018-02-19T06:12:02.733Z,41.45
2018-02-19T06:12:34.372Z,38.30
2018-02-19T06:13:05.997Z,37.33
2018-02-19T06:13:37.661Z,39.47
2018-02-19T06:14:09.309Z,46.45
2018-02-19T06:14:40.922Z,36.70
2018-02-19T06:15:12.561Z,35.72
2018-02-19T06:15:44.216Z,44.50
2018-02-19T06:16:15.838Z,37.38
2018-02-19T06:16:47.468Z,39.92
2018-02-19T06:17:19.102Z,36.45
2018-02-19T06:17:50.744Z,39.50
2018-02-19T06:18:22.410Z,40.30
2018-02-19T06:18:54.047Z,39.10
2018-02-19T06:19:25.670Z,40.47
2018-02-19T06:19:57.305Z,36.53
2018-02-19T06:20:28.928Z,42.78
2018-02-19T06:21:00.553Z,38.15
2018-02-19T06:21:32.184Z,36.95
2018-02-19T06:22:03.835Z,38.58
2018-02-19T06:22:35.480Z,40.40
2018-02-19T06:23:07.134Z,38.60
2018-02-19T06:23:38.752Z,38.35
2018-02-19T06:24:10.376Z,40.28
2018-02-19T06:24:42.007Z,37.80
2018-02-19T06:25:13.678Z,39.45
2018-02-19T06:25:45.311Z,36.20
2018-02-19T06:26:16.924Z,44.78
2018-02-19T06:26:48.561Z,39.80
2018-02-19T06:27:20.193Z,37.97
2018-02-19T06:27:51.837Z,45.40
2018-02-19T06:28:23.472Z,37.30
2018-02-19T06:28:55.099Z,40.67
2018-02-19T06:29:26.732Z,40.03
2018-02-19T06:29:58.442Z,40.20
2018-02-19T06:30:30.093Z,40.53
2018-02-19T06:31:01.724Z,39.30
2018-02-19T06:31:33.349Z,41.10
2018-02-19T06:32:04.956Z,38.58
2018-02-19T06:32:36.582Z,40.08
2018-02-19T06:33:08.235Z,40.38
2018-02-19T06:33:39.892Z,41.78
2018-02-19T06:34:11.528Z,40.20
2018-02-19T06:34:43.549Z,42.80
2018-02-19T06:35:14.812Z,38.60
2018-02-19T06:35:46.458Z,41.90
2018-02-19T06:36:18.109Z,40.35
2018-02-19T06:36:49.733Z,39.47
2018-02-19T06:37:21.369Z,34.92
2018-02-19T06:37:52.992Z,39.50
2018-02-19T06:38:24.638Z,39.00
2018-02-19T06:38:56.283Z,36.17
2018-02-19T06:39:27.900Z,40.47
2018-02-19T06:39:59.537Z,37.92
2018-02-19T06:40:31.160Z,42.20
2018-02-19T06:41:02.782Z,42.28
2018-02-19T06:41:34.395Z,40.83
2018-02-19T06:42:06.035Z,37.65
2018-02-19T06:42:37.702Z,37.50
2018-02-19T06:43:09.312Z,39.88
2018-02-19T06:43:40.942Z,44.05
2018-02-19T06:44:12.571Z,39.20
2018-02-19T06:44:44.195Z,38.17
2018-02-19T06:45:15.815Z,40.97
2018-02-19T06:45:47.451Z,38.30
2018-02-19T06:46:19.089Z,38.03
2018-02-19T06:46:50.726Z,40.95
2018-02-19T06:47:22.355Z,43.50
2018-02-19T06:47:53.983Z,41.95
2018-02-19T06:48:25.607Z,40.10
2018-02-19T06:48:57.250Z,40.83